Terminal Aerodrome Forecast
Issued by NWS

Home | Current Version | Previous Version | Text Only | Print | Product List | Glossary On
Versions: 1 2 3 4 5 6 7 8 9 10 11 12 13 14 15 16 17 18 19 20 21 22
000
FTUS45 KRIW 212300
TAFPNA
TAF
KPNA 212324Z 2200/2224 VRB05KT P6SM SCT200
     FM221000 VRB04KT P6SM VCSH SCT015 OVC025 WS020/26030KT
     FM221400 VRB05KT 4SM -SN SCT015 OVC025
     FM222000 28011KT 3SM -SN SCT010 BKN025
      AMD LTD TO CLD VIS AND WIND=

USA.gov is the U.S. government's official web portal to all federal, state and local government web resources and services.